Time;durP1;ratioP1;P1;durP2;ratioP2;P2;SDS_P1;SDS_P2;PMS_P1;PMS_P2;Temp;Humidity;BMP_temperature;BMP_pressure;BME280_temperature;BME280_humidity;BME280_pressure;Samples;Min_cycle;Max_cycle;Signal;HPM_P1;HPM_P2
2021/08/18 00:00:09;;;;;;;9.30;7.10;;;14.90;99.90;;;;;;4905410;29;20428;-71
2021/08/18 00:02:38;;;;;;;12.30;7.37;;;15.00;99.90;;;;;;4925969;29;20493;-71
2021/08/18 00:05:07;;;;;;;10.10;6.87;;;15.00;99.90;;;;;;4921182;29;20489;-70
2021/08/18 00:07:35;;;;;;;8.20;7.40;;;15.10;99.90;;;;;;4933881;23;20453;-70
2021/08/18 00:10:06;;;;;;;8.80;7.90;;;15.10;99.90;;;;;;4938846;29;20451;-70
2021/08/18 00:12:34;;;;;;;16.00;7.43;;;15.00;99.90;;;;;;4957278;29;20435;-70
2021/08/18 00:15:04;;;;;;;11.20;7.43;;;15.00;99.90;;;;;;4956031;29;20420;-72
2021/08/18 00:17:32;;;;;;;9.30;7.70;;;15.00;99.90;;;;;;4955567;29;20435;-71
2021/08/18 00:20:00;;;;;;;8.30;7.13;;;15.00;99.90;;;;;;4955837;29;20432;-70
2021/08/18 00:22:28;;;;;;;10.57;7.53;;;15.00;99.90;;;;;;4955150;29;20432;-70
2021/08/18 00:24:56;;;;;;;9.13;7.50;;;15.10;99.90;;;;;;4955378;29;20992;-71
2021/08/18 00:27:24;;;;;;;9.90;7.10;;;15.20;99.90;;;;;;4955027;29;20431;-70
2021/08/18 00:29:53;;;;;;;8.93;8.03;;;15.10;99.90;;;;;;4955238;29;20431;-70
2021/08/18 00:32:22;;;;;;;8.20;7.37;;;15.20;99.90;;;;;;4955001;29;20925;-70
2021/08/18 00:34:50;;;;;;;9.27;7.60;;;15.20;99.90;;;;;;4955365;29;20481;-71
2021/08/18 00:37:18;;;;;;;11.23;8.47;;;15.10;99.90;;;;;;4955043;29;20432;-70
2021/08/18 00:39:46;;;;;;;12.10;7.97;;;15.00;99.90;;;;;;4955175;29;20428;-69
2021/08/18 00:42:15;;;;;;;10.67;9.20;;;14.90;99.90;;;;;;4955261;29;20415;-70
2021/08/18 00:44:43;;;;;;;9.10;7.67;;;15.00;99.90;;;;;;4954996;28;20495;-70
2021/08/18 00:47:11;;;;;;;9.97;8.13;;;15.00;99.90;;;;;;4954788;29;20432;-71
2021/08/18 00:49:41;;;;;;;7.87;7.07;;;15.10;99.90;;;;;;4954975;29;20514;-71
2021/08/18 00:52:09;;;;;;;13.03;7.70;;;15.10;99.90;;;;;;4954812;29;20873;-71
2021/08/18 00:54:50;;;;;;;10.50;8.40;;;15.30;99.90;;;;;;4937387;29;20490;-72
2021/08/18 00:57:18;;;;;;;12.27;8.23;;;15.20;99.90;;;;;;4954519;29;20961;-72
2021/08/18 00:59:46;;;;;;;10.90;9.03;;;15.10;99.90;;;;;;4955339;29;20515;-72
2021/08/18 01:02:14;;;;;;;10.97;9.13;;;15.00;99.90;;;;;;4958474;29;20502;-71
2021/08/18 01:04:44;;;;;;;8.73;7.80;;;14.90;99.90;;;;;;4963095;29;20878;-71
2021/08/18 01:07:13;;;;;;;11.33;8.37;;;14.90;99.90;;;;;;4962423;29;20435;-71
2021/08/18 01:09:41;;;;;;;9.90;8.80;;;14.90;99.90;;;;;;4962816;29;20463;-70
2021/08/18 01:12:12;;;;;;;9.60;8.60;;;14.90;99.90;;;;;;4956306;29;20428;-70
2021/08/18 01:14:40;;;;;;;10.67;8.87;;;14.90;99.90;;;;;;4955141;29;20479;-71
2021/08/18 01:17:11;;;;;;;10.77;9.13;;;14.90;99.90;;;;;;4954549;29;20487;-71
2021/08/18 01:19:39;;;;;;;12.47;9.33;;;14.80;99.90;;;;;;4954434;29;20444;-71
2021/08/18 01:22:09;;;;;;;11.00;8.83;;;14.90;99.90;;;;;;4955066;29;20456;-72
2021/08/18 01:24:37;;;;;;;10.30;8.47;;;14.90;99.90;;;;;;4954156;29;20467;-71
2021/08/18 01:27:05;;;;;;;10.87;9.10;;;14.90;99.90;;;;;;4937561;29;20439;-69
2021/08/18 01:29:35;;;;;;;11.07;9.03;;;14.90;99.90;;;;;;4954162;29;20462;-70
2021/08/18 01:32:03;;;;;;;11.03;9.80;;;14.90;99.90;;;;;;4955084;29;20433;-71
2021/08/18 01:34:35;;;;;;;11.07;8.97;;;14.90;99.90;;;;;;4954098;29;20423;-70
2021/08/18 01:37:03;;;;;;;11.43;8.77;;;14.80;99.90;;;;;;4954224;29;20458;-70
2021/08/18 01:39:32;;;;;;;8.57;7.77;;;14.90;99.90;;;;;;4954390;29;20881;-70
2021/08/18 01:42:01;;;;;;;10.17;8.70;;;14.90;99.90;;;;;;4956586;29;20808;-73
2021/08/18 01:44:29;;;;;;;11.80;8.87;;;14.90;99.90;;;;;;4956595;29;20467;-69
2021/08/18 01:46:59;;;;;;;10.47;9.10;;;14.90;99.90;;;;;;4957395;29;20456;-71
2021/08/18 01:49:27;;;;;;;13.23;10.20;;;15.00;99.90;;;;;;4956830;29;20452;-70
2021/08/18 01:51:56;;;;;;;11.70;10.10;;;14.90;99.90;;;;;;4958063;29;20431;-69
2021/08/18 01:54:24;;;;;;;9.13;7.30;;;14.80;99.90;;;;;;4965687;29;20523;-69
2021/08/18 01:56:52;;;;;;;12.90;10.27;;;14.80;99.90;;;;;;4963425;28;20790;-69
2021/08/18 01:59:20;;;;;;;10.00;9.00;;;14.90;99.90;;;;;;4963729;29;20458;-69
2021/08/18 02:01:48;;;;;;;11.00;9.30;;;14.80;99.90;;;;;;4966323;29;20424;-72
2021/08/18 02:04:18;;;;;;;8.50;7.10;;;14.80;99.90;;;;;;4953504;29;20969;-70
2021/08/18 02:06:46;;;;;;;8.80;7.90;;;15.00;99.90;;;;;;4971077;29;20428;-72
2021/08/18 02:09:14;;;;;;;9.00;8.10;;;15.00;99.90;;;;;;4964131;29;20527;-72
2021/08/18 02:11:42;;;;;;;10.40;9.40;;;14.90;99.90;;;;;;4955673;29;20436;-72
2021/08/18 02:14:10;;;;;;;10.97;9.03;;;14.90;99.90;;;;;;4953794;29;20814;-71
2021/08/18 02:16:38;;;;;;;12.10;8.93;;;14.90;99.90;;;;;;4953877;29;20440;-71
2021/08/18 02:19:06;;;;;;;11.07;9.43;;;14.80;99.90;;;;;;4953098;29;20875;-70
2021/08/18 02:21:35;;;;;;;11.50;9.60;;;15.00;99.90;;;;;;4954904;29;20458;-71
2021/08/18 02:24:04;;;;;;;10.83;9.50;;;15.00;99.90;;;;;;4953902;29;20463;-71
2021/08/18 02:26:32;;;;;;;12.63;9.47;;;15.00;99.90;;;;;;4954241;29;20483;-71
2021/08/18 02:29:00;;;;;;;13.43;9.90;;;14.80;99.90;;;;;;4942706;29;20523;-71
2021/08/18 02:31:30;;;;;;;10.87;9.77;;;14.70;99.90;;;;;;4967359;29;20455;-72
2021/08/18 02:33:58;;;;;;;10.40;9.30;;;14.70;99.90;;;;;;4969740;29;20434;-71
2021/08/18 02:36:26;;;;;;;8.27;7.47;;;14.70;99.90;;;;;;4965834;29;20438;-72
2021/08/18 02:38:56;;;;;;;12.40;9.27;;;14.70;99.90;;;;;;4963145;29;20455;-71
2021/08/18 02:41:24;;;;;;;10.47;7.93;;;14.70;99.90;;;;;;4961667;29;21025;-71
2021/08/18 02:43:52;;;;;;;10.90;8.27;;;14.90;99.90;;;;;;4961774;29;20454;-71
2021/08/18 02:46:20;;;;;;;11.57;8.40;;;14.90;99.90;;;;;;4964814;29;20475;-71
2021/08/18 02:48:48;;;;;;;9.63;8.40;;;14.90;99.90;;;;;;4964675;29;20594;-70
2021/08/18 02:51:16;;;;;;;9.60;8.60;;;14.80;99.90;;;;;;4935512;29;20435;-71
2021/08/18 02:53:44;;;;;;;9.33;8.43;;;14.80;99.90;;;;;;4952939;29;20506;-70
2021/08/18 02:56:14;;;;;;;13.40;7.90;;;14.80;99.90;;;;;;4952957;29;20428;-70
2021/08/18 02:58:42;;;;;;;10.40;7.40;;;14.80;99.90;;;;;;4952979;29;20474;-69
2021/08/18 03:01:10;;;;;;;10.93;7.93;;;14.90;99.90;;;;;;4953005;29;20435;-70
2021/08/18 03:03:38;;;;;;;10.47;8.60;;;14.80;99.90;;;;;;4952965;29;20487;-70
2021/08/18 03:06:06;;;;;;;10.60;9.03;;;14.80;99.90;;;;;;4952846;28;21023;-71
2021/08/18 03:08:34;;;;;;;10.93;9.03;;;14.80;99.90;;;;;;4955602;29;20514;-72
2021/08/18 03:11:02;;;;;;;12.87;10.33;;;14.80;99.90;;;;;;4956880;29;21034;-72
2021/08/18 03:13:31;;;;;;;11.10;8.77;;;14.90;99.90;;;;;;4956879;29;20456;-69
2021/08/18 03:15:59;;;;;;;11.37;9.73;;;14.90;99.90;;;;;;4956808;29;20850;-72
2021/08/18 03:18:29;;;;;;;11.33;8.77;;;15.00;99.90;;;;;;4939534;29;20514;-71
2021/08/18 03:20:57;;;;;;;9.30;8.40;;;14.70;99.90;;;;;;4957018;29;20432;-72
2021/08/18 03:23:26;;;;;;;11.50;9.50;;;14.70;99.90;;;;;;4957707;29;20431;-72
2021/08/18 03:25:54;;;;;;;10.93;8.17;;;14.60;99.90;;;;;;4957043;29;20570;-71
2021/08/18 03:28:22;;;;;;;10.00;8.87;;;14.60;99.90;;;;;;4956758;29;20452;-72
2021/08/18 03:30:51;;;;;;;10.40;8.43;;;14.60;99.90;;;;;;4957116;29;20439;-72
2021/08/18 03:33:20;;;;;;;12.10;9.70;;;14.70;99.90;;;;;;4956402;29;21019;-71
2021/08/18 03:35:48;;;;;;;8.10;7.07;;;14.80;99.90;;;;;;4956249;29;20431;-71
2021/08/18 03:38:16;;;;;;;9.60;8.07;;;14.70;99.90;;;;;;4956219;29;20799;-71
2021/08/18 03:40:46;;;;;;;11.03;8.30;;;14.80;99.90;;;;;;4956271;29;20547;-72
2021/08/18 03:43:14;;;;;;;10.47;7.83;;;14.70;99.90;;;;;;4956445;29;20439;-71
2021/08/18 03:45:42;;;;;;;8.90;8.00;;;14.60;99.90;;;;;;4939201;29;20542;-72
2021/08/18 03:48:11;;;;;;;8.63;7.70;;;14.50;99.90;;;;;;4939249;29;20451;-72
2021/08/18 03:50:39;;;;;;;11.70;7.17;;;14.60;99.90;;;;;;4957113;29;20950;-72
2021/08/18 03:53:07;;;;;;;10.43;8.00;;;14.70;99.90;;;;;;4956738;29;20882;-72
2021/08/18 03:55:36;;;;;;;11.23;8.67;;;14.70;99.90;;;;;;4955999;29;20491;-72
2021/08/18 03:58:04;;;;;;;9.20;6.57;;;14.70;99.90;;;;;;4955423;29;20466;-72
2021/08/18 04:00:32;;;;;;;9.00;7.40;;;14.70;99.90;;;;;;4955653;29;20461;-71
2021/08/18 04:03:01;;;;;;;10.00;7.80;;;14.80;99.90;;;;;;4955424;29;20838;-72
2021/08/18 04:05:31;;;;;;;11.53;7.43;;;14.70;99.90;;;;;;4955679;29;20572;-72
2021/08/18 04:08:01;;;;;;;10.90;7.57;;;14.70;99.90;;;;;;4955133;29;20461;-72
2021/08/18 04:10:29;;;;;;;8.97;8.07;;;14.80;99.90;;;;;;4955841;29;20431;-72
2021/08/18 04:12:59;;;;;;;12.17;8.50;;;14.80;99.90;;;;;;4955402;29;20954;-72
2021/08/18 04:15:29;;;;;;;8.37;6.50;;;14.70;99.90;;;;;;4955552;29;20458;-72
2021/08/18 04:17:57;;;;;;;8.53;7.20;;;14.80;99.90;;;;;;4954738;28;20452;-70
2021/08/18 04:20:26;;;;;;;11.03;7.70;;;14.90;99.90;;;;;;4955408;29;20479;-71
2021/08/18 04:22:55;;;;;;;8.80;7.90;;;14.90;99.90;;;;;;4955230;29;20398;-71
2021/08/18 04:25:23;;;;;;;12.67;7.90;;;14.80;99.90;;;;;;4955436;29;20507;-70
2021/08/18 04:27:51;;;;;;;11.43;7.47;;;14.90;99.90;;;;;;4955019;29;20499;-70
2021/08/18 04:30:21;;;;;;;9.20;6.93;;;14.90;99.90;;;;;;4955155;29;20580;-71
2021/08/18 04:32:49;;;;;;;7.30;6.60;;;14.80;99.90;;;;;;4954982;29;20495;-73
2021/08/18 04:35:19;;;;;;;7.97;6.73;;;14.80;99.90;;;;;;4938000;29;20426;-71
2021/08/18 04:37:47;;;;;;;8.83;7.30;;;14.80;99.90;;;;;;4954883;29;20479;-69
2021/08/18 04:40:17;;;;;;;10.37;7.10;;;14.90;99.90;;;;;;4955280;29;20850;-71
2021/08/18 04:42:46;;;;;;;8.80;7.17;;;15.00;99.90;;;;;;4954945;29;20458;-72
2021/08/18 04:45:17;;;;;;;11.23;8.00;;;15.00;99.90;;;;;;4955084;29;20436;-72
2021/08/18 04:47:45;;;;;;;11.23;8.00;;;14.80;99.90;;;;;;4954624;29;20499;-71
2021/08/18 04:50:15;;;;;;;9.30;7.50;;;14.80;99.90;;;;;;4955059;29;20537;-73
2021/08/18 04:52:43;;;;;;;8.33;7.20;;;14.80;99.90;;;;;;4954835;29;20439;-72
2021/08/18 04:55:17;;;;;;;7.33;5.80;;;14.90;99.90;;;;;;4954949;29;20416;-72
2021/08/18 04:57:45;;;;;;;12.67;7.67;;;15.00;99.90;;;;;;4954501;29;20502;-72
2021/08/18 05:00:15;;;;;;;10.63;7.57;;;15.00;99.90;;;;;;4948617;29;20504;-72
2021/08/18 05:02:44;;;;;;;8.07;6.03;;;15.00;99.90;;;;;;4943785;29;20424;-69
2021/08/18 05:05:13;;;;;;;8.23;6.47;;;15.10;99.90;;;;;;4947262;29;20500;-71
2021/08/18 05:07:41;;;;;;;8.17;6.13;;;15.20;99.90;;;;;;4951677;29;20506;-72
2021/08/18 05:10:10;;;;;;;7.53;6.80;;;15.30;99.90;;;;;;4937210;29;20431;-72
2021/08/18 05:12:39;;;;;;;10.13;6.80;;;15.60;99.90;;;;;;4935495;29;20789;-71
2021/08/18 05:15:08;;;;;;;7.40;5.97;;;16.40;99.90;;;;;;4935258;29;20426;-71
2021/08/18 05:17:36;;;;;;;6.80;4.70;;;17.40;99.90;;;;;;4935096;29;20432;-71
2021/08/18 05:20:06;;;;;;;7.10;6.07;;;18.50;99.90;;;;;;4935135;29;20975;-70
2021/08/18 05:22:34;;;;;;;5.53;4.93;;;18.50;99.90;;;;;;4935834;29;20811;-71
2021/08/18 05:25:04;;;;;;;7.30;5.80;;;17.90;99.90;;;;;;4935325;29;20492;-70
2021/08/18 05:27:33;;;;;;;8.40;5.93;;;17.70;99.90;;;;;;4935097;29;20468;-70
2021/08/18 05:30:02;;;;;;;7.33;6.53;;;17.10;99.90;;;;;;4934031;29;20463;-71
2021/08/18 05:32:31;;;;;;;12.00;6.30;;;16.80;99.90;;;;;;4934876;29;20613;-71
2021/08/18 05:34:59;;;;;;;8.77;6.30;;;16.20;99.90;;;;;;4934993;29;20430;-71
2021/08/18 05:37:27;;;;;;;8.33;5.23;;;16.20;99.90;;;;;;4936475;29;20765;-71
2021/08/18 05:39:55;;;;;;;9.20;6.43;;;16.30;99.90;;;;;;4938352;29;20783;-72
2021/08/18 05:42:23;;;;;;;7.10;5.60;;;16.40;99.90;;;;;;4934636;29;20432;-71
2021/08/18 05:44:51;;;;;;;7.33;5.57;;;16.30;99.90;;;;;;4941129;29;20425;-69
2021/08/18 05:47:22;;;;;;;7.03;5.53;;;16.20;99.90;;;;;;4948721;29;20472;-71
2021/08/18 05:49:52;;;;;;;6.87;5.40;;;16.00;99.90;;;;;;4947501;29;20505;-72
2021/08/18 05:52:21;;;;;;;10.40;8.97;;;16.00;99.90;;;;;;4946960;29;20419;-70
2021/08/18 05:54:49;;;;;;;8.50;6.10;;;16.10;99.90;;;;;;4947852;29;20432;-72
2021/08/18 05:57:17;;;;;;;9.83;6.47;;;16.10;99.90;;;;;;4943975;29;20487;-73
2021/08/18 05:59:45;;;;;;;10.93;7.20;;;16.10;99.90;;;;;;4935437;29;20858;-72
2021/08/18 06:02:13;;;;;;;6.83;5.57;;;16.00;99.90;;;;;;4934779;29;20436;-71
2021/08/18 06:04:42;;;;;;;6.37;5.40;;;16.20;99.90;;;;;;4934514;29;20526;-73
2021/08/18 06:07:11;;;;;;;6.30;5.47;;;16.30;99.90;;;;;;4916943;29;20863;-70
2021/08/18 06:09:39;;;;;;;6.33;5.73;;;16.30;99.90;;;;;;4960118;23;20912;-69
2021/08/18 06:12:08;;;;;;;7.27;6.53;;;16.40;99.90;;;;;;4920902;29;20918;-69
2021/08/18 06:14:37;;;;;;;6.40;5.70;;;16.50;99.90;;;;;;4934039;29;20416;-69
2021/08/18 06:17:05;;;;;;;8.77;6.87;;;16.60;99.90;;;;;;4934093;29;20504;-69
2021/08/18 06:19:33;;;;;;;7.33;6.30;;;16.50;99.90;;;;;;4928601;29;20475;-69
2021/08/18 06:22:03;;;;;;;7.40;5.43;;;16.40;99.90;;;;;;4933965;29;21035;-70
2021/08/18 06:24:40;;;;;;;5.40;4.60;;;16.60;99.90;;;;;;4933536;29;20436;-70
2021/08/18 06:27:10;;;;;;;6.63;5.80;;;16.60;99.90;;;;;;4933547;29;20887;-69
2021/08/18 06:29:38;;;;;;;6.93;6.17;;;16.70;99.90;;;;;;4933968;29;20886;-70
2021/08/18 06:32:07;;;;;;;8.60;6.00;;;16.90;99.90;;;;;;4933934;29;20468;-70
2021/08/18 06:34:35;;;;;;;7.47;4.53;;;16.90;99.90;;;;;;4933999;29;20836;-69
2021/08/18 06:37:06;;;;;;;9.97;5.53;;;17.10;99.90;;;;;;4933769;29;20813;-71
2021/08/18 06:39:39;;;;;;;9.03;5.40;;;17.30;99.90;;;;;;4933859;29;21005;-70
2021/08/18 06:42:08;;;;;;;10.10;5.53;;;17.20;99.90;;;;;;4916472;29;20558;-70
2021/08/18 06:44:37;;;;;;;5.00;3.80;;;17.10;99.90;;;;;;4935267;29;20806;-69
2021/08/18 06:47:07;;;;;;;7.13;5.10;;;17.20;99.90;;;;;;4927347;29;20439;-69
2021/08/18 06:49:36;;;;;;;5.20;4.33;;;17.30;99.90;;;;;;4916519;29;20441;-70
2021/08/18 06:52:07;;;;;;;7.30;4.83;;;17.30;99.90;;;;;;4916010;29;20404;-70
2021/08/18 06:54:36;;;;;;;6.00;4.67;;;17.30;99.90;;;;;;4915941;29;20421;-69
2021/08/18 06:57:05;;;;;;;4.27;3.87;;;17.50;99.90;;;;;;4908612;29;20770;-70
2021/08/18 06:59:33;;;;;;;4.57;4.07;;;17.60;99.90;;;;;;4916574;29;20759;-70
2021/08/18 07:02:03;;;;;;;5.60;3.90;;;17.60;99.90;;;;;;4916373;29;20493;-70
2021/08/18 07:04:32;;;;;;;4.53;3.30;;;17.60;99.90;;;;;;4899406;29;20430;-71
2021/08/18 07:07:00;;;;;;;4.43;4.00;;;17.90;99.90;;;;;;4898815;29;20477;-70
2021/08/18 07:09:29;;;;;;;5.40;4.20;;;17.80;99.90;;;;;;4915507;29;20468;-71
2021/08/18 07:11:58;;;;;;;5.43;3.50;;;17.50;99.90;;;;;;4915668;29;20442;-69
2021/08/18 07:14:26;;;;;;;5.53;4.13;;;17.30;99.90;;;;;;4915536;29;20786;-70
2021/08/18 07:16:54;;;;;;;4.17;3.70;;;17.50;99.90;;;;;;4922555;29;20537;-70
2021/08/18 07:19:22;;;;;;;4.83;3.73;;;17.70;99.90;;;;;;4934109;29;20452;-70
2021/08/18 07:21:50;;;;;;;6.40;5.00;;;18.00;99.90;;;;;;4934482;29;20436;-70
2021/08/18 07:24:18;;;;;;;5.90;4.10;;;18.20;99.90;;;;;;4934326;29;20465;-70
2021/08/18 07:26:50;;;;;;;3.47;3.17;;;18.40;99.90;;;;;;4934562;29;20452;-70
2021/08/18 07:29:18;;;;;;;3.83;3.53;;;18.40;99.90;;;;;;4934645;29;20448;-70
2021/08/18 07:31:46;;;;;;;4.37;3.60;;;17.90;99.90;;;;;;4934625;29;20403;-70
2021/08/18 07:34:14;;;;;;;3.93;3.10;;;17.60;99.90;;;;;;4934388;29;20420;-70
2021/08/18 07:36:43;;;;;;;6.20;3.07;;;17.50;99.90;;;;;;4934724;29;20429;-70
2021/08/18 07:39:11;;;;;;;3.70;3.10;;;17.20;99.90;;;;;;4934415;29;20974;-70
2021/08/18 07:41:39;;;;;;;4.73;3.43;;;17.00;99.90;;;;;;4917317;29;20500;-70
2021/08/18 07:44:08;;;;;;;4.33;3.20;;;17.00;99.90;;;;;;4934325;29;20399;-69
2021/08/18 07:46:38;;;;;;;4.07;3.37;;;16.90;99.90;;;;;;4934361;29;20426;-69
2021/08/18 07:49:09;;;;;;;4.07;3.23;;;16.90;99.90;;;;;;4934194;29;20476;-70
2021/08/18 07:51:37;;;;;;;3.60;3.30;;;16.80;99.90;;;;;;4934355;29;20403;-70
2021/08/18 07:54:06;;;;;;;5.03;3.83;;;16.80;99.90;;;;;;4935828;29;20418;-69
2021/08/18 07:56:34;;;;;;;5.50;3.57;;;16.90;99.90;;;;;;4924831;29;20911;-69
2021/08/18 07:59:02;;;;;;;4.07;3.07;;;17.00;99.90;;;;;;4901408;29;20456;-70
2021/08/18 08:01:39;;;;;;;12.30;8.40;;;17.10;99.90;;;;;;4918817;29;20424;-70
2021/08/18 08:04:08;;;;;;;11.17;5.60;;;17.20;99.90;;;;;;4919214;29;20780;-70
2021/08/18 08:06:36;;;;;;;4.90;3.43;;;17.30;99.90;;;;;;4918778;29;20422;-70
2021/08/18 08:09:04;;;;;;;5.10;3.30;;;17.10;99.90;;;;;;4918985;29;20477;-71
2021/08/18 08:11:32;;;;;;;3.20;2.90;;;17.00;99.90;;;;;;4902402;29;20880;-69
2021/08/18 08:14:00;;;;;;;4.60;3.00;;;17.10;99.90;;;;;;4901939;29;20936;-70
2021/08/18 08:16:28;;;;;;;4.37;3.53;;;17.20;99.90;;;;;;4918999;29;20404;-70
2021/08/18 08:18:58;;;;;;;5.87;3.33;;;17.20;99.90;;;;;;4918424;29;20427;-70
2021/08/18 08:21:27;;;;;;;3.60;2.90;;;17.20;99.90;;;;;;4919291;29;20533;-69
2021/08/18 08:23:55;;;;;;;4.43;3.23;;;17.30;99.90;;;;;;4918988;29;20448;-70
2021/08/18 08:26:23;;;;;;;4.17;2.10;;;17.40;99.90;;;;;;4918724;29;20429;-70
2021/08/18 08:28:52;;;;;;;5.03;2.97;;;17.70;99.90;;;;;;4918588;29;20463;-70
2021/08/18 08:31:20;;;;;;;4.37;3.20;;;18.00;99.90;;;;;;4919592;29;20488;-70
2021/08/18 08:33:48;;;;;;;6.10;4.03;;;18.40;99.90;;;;;;4932923;29;20985;-69
2021/08/18 08:36:18;;;;;;;4.10;3.40;;;18.90;99.90;;;;;;4901200;29;20507;-69
2021/08/18 08:38:46;;;;;;;3.30;3.00;;;19.00;99.90;;;;;;4918093;29;20427;-69
2021/08/18 08:41:15;;;;;;;17.63;8.67;;;19.00;99.90;;;;;;4918151;29;20444;-70
2021/08/18 08:43:44;;;;;;;4.50;3.03;;;18.80;99.90;;;;;;4917961;29;20460;-69
2021/08/18 08:46:12;;;;;;;3.90;2.73;;;18.80;99.90;;;;;;4917706;29;20892;-70
2021/08/18 08:48:41;;;;;;;4.87;3.53;;;18.80;99.90;;;;;;4900690;29;20492;-70
2021/08/18 08:51:09;;;;;;;5.47;2.73;;;18.80;99.90;;;;;;4917770;29;20404;-69
2021/08/18 08:53:40;;;;;;;5.17;3.20;;;18.80;99.90;;;;;;4917282;29;20419;-70
2021/08/18 08:56:08;;;;;;;4.53;3.20;;;18.90;99.90;;;;;;4927221;29;20442;-70
2021/08/18 08:58:37;;;;;;;5.13;3.70;;;19.20;99.90;;;;;;4936431;29;20470;-69
2021/08/18 09:01:05;;;;;;;3.83;3.00;;;19.30;99.90;;;;;;4919752;29;20664;-70
2021/08/18 09:03:36;;;;;;;6.50;3.60;;;19.70;99.90;;;;;;4919208;29;20415;-70
2021/08/18 09:06:07;;;;;;;3.40;2.60;;;20.00;99.90;;;;;;4935633;29;20415;-69
2021/08/18 09:08:50;;;;;;;3.93;3.13;;;20.00;99.90;;;;;;4936031;29;20476;-69
2021/08/18 09:11:20;;;;;;;4.10;3.30;;;19.80;99.90;;;;;;4936541;29;20387;-69
2021/08/18 09:13:49;;;;;;;3.70;2.63;;;19.90;99.90;;;;;;4936436;29;20411;-69
2021/08/18 09:16:20;;;;;;;5.30;2.70;;;19.90;99.90;;;;;;4936319;29;20441;-69
2021/08/18 09:18:50;;;;;;;8.90;2.60;;;19.40;99.90;;;;;;4936261;29;20478;-71
2021/08/18 09:21:36;;;;;;;2.93;2.40;;;19.20;99.90;;;;;;4936196;29;20453;-69
2021/08/18 09:24:26;;;;;;;2.30;2.03;;;19.00;99.90;;;;;;4936270;29;20413;-70
2021/08/18 09:26:57;;;;;;;2.43;2.03;;;19.30;99.90;;;;;;4936441;29;20438;-70
2021/08/18 09:29:36;;;;;;;2.60;2.20;;;19.40;99.90;;;;;;4936240;29;20538;-70
2021/08/18 09:32:28;;;;;;;2.30;1.90;;;19.80;99.90;;;;;;4913690;29;20416;-71
2021/08/18 09:35:08;;;;;;;2.53;2.10;;;19.90;99.90;;;;;;4925272;29;20426;-70
2021/08/18 09:37:37;;;;;;;5.07;2.80;;;19.90;99.90;;;;;;4917174;29;20461;-71
2021/08/18 09:40:18;;;;;;;2.90;2.60;;;19.80;99.90;;;;;;4917600;29;20523;-70
2021/08/18 09:42:48;;;;;;;2.50;2.30;;;19.50;99.90;;;;;;4917104;29;20396;-70
2021/08/18 09:45:23;;;;;;;2.40;2.13;;;19.70;99.90;;;;;;4917317;29;20727;-70
2021/08/18 09:48:05;;;;;;;3.00;2.20;;;19.90;99.90;;;;;;4916576;29;20459;-71
2021/08/18 09:50:44;;;;;;;2.57;2.37;;;19.90;99.90;;;;;;4916955;29;20405;-70
2021/08/18 09:53:15;;;;;;;2.67;2.03;;;20.00;99.90;;;;;;4899702;29;20416;-70
2021/08/18 09:56:03;;;;;;;4.20;3.07;;;19.60;99.90;;;;;;4917829;29;20844;-70
2021/08/18 09:58:34;;;;;;;2.83;2.47;;;19.70;99.90;;;;;;4900371;29;20458;-70
2021/08/18 10:01:08;;;;;;;3.50;2.63;;;19.50;99.90;;;;;;4917219;29;20521;-70
2021/08/18 10:03:37;;;;;;;3.00;1.80;;;19.60;99.90;;;;;;4916544;29;20442;-70
2021/08/18 10:06:07;;;;;;;2.77;2.10;;;19.70;99.90;;;;;;4916388;29;20786;-70
2021/08/18 10:08:36;;;;;;;3.23;2.10;;;19.90;99.90;;;;;;4916130;29;20452;-70
2021/08/18 10:11:07;;;;;;;2.60;2.10;;;20.20;99.90;;;;;;4916714;29;20429;-70
2021/08/18 10:13:35;;;;;;;3.13;2.83;;;20.60;99.90;;;;;;4916519;29;20832;-70
2021/08/18 10:16:04;;;;;;;2.73;1.87;;;20.80;99.90;;;;;;4915992;29;20412;-69
2021/08/18 10:18:37;;;;;;;3.40;2.07;;;20.80;99.90;;;;;;4915414;29;20424;-70
2021/08/18 10:21:08;;;;;;;3.40;2.63;;;21.00;99.90;;;;;;4916168;29;20416;-70
2021/08/18 10:23:55;;;;;;;2.90;2.10;;;20.90;99.90;;;;;;4915886;29;20392;-69
2021/08/18 10:26:53;;;;;;;3.37;2.13;;;21.30;99.90;;;;;;4916100;29;20435;-70
2021/08/18 10:29:32;;;;;;;2.37;2.00;;;21.30;99.90;;;;;;4915920;29;20705;-70
2021/08/18 10:32:02;;;;;;;4.83;2.50;;;21.70;99.90;;;;;;4920616;29;20396;-70
2021/08/18 10:34:45;;;;;;;4.07;3.23;;;22.10;99.90;;;;;;4917787;29;20407;-70
2021/08/18 10:37:20;;;;;;;4.53;3.10;;;22.40;99.90;;;;;;4934802;29;20403;-70
2021/08/18 10:39:52;;;;;;;2.90;1.50;;;22.30;99.90;;;;;;4918667;29;20484;-71
2021/08/18 10:42:37;;;;;;;2.50;2.00;;;22.20;99.90;;;;;;4934861;29;20430;-71
2021/08/18 10:45:42;;;;;;;2.37;1.83;;;22.20;99.90;;;;;;4935052;29;20435;-71
2021/08/18 10:48:10;;;;;;;5.77;2.17;;;21.90;99.90;;;;;;4934539;29;21005;-70
2021/08/18 10:50:41;;;;;;;2.67;2.43;;;21.50;99.90;;;;;;4917552;29;20554;-71
2021/08/18 10:53:34;;;;;;;3.90;2.57;;;21.30;99.90;;;;;;4917658;29;20450;-71
2021/08/18 10:56:36;;;;;;;2.80;2.07;;;21.20;99.90;;;;;;4925884;29;20922;-71
2021/08/18 10:59:49;;;;;;;2.13;1.90;;;20.90;99.90;;;;;;4915301;29;20960;-70
2021/08/18 11:02:48;;;;;;;1.83;1.47;;;21.20;99.90;;;;;;4897921;29;20442;-71
2021/08/18 11:05:19;;;;;;;3.50;2.30;;;21.30;99.90;;;;;;4915791;29;20790;-70
2021/08/18 11:08:05;;;;;;;3.67;2.20;;;20.50;99.90;;;;;;4915374;29;20460;-70
2021/08/18 11:10:35;;;;;;;3.07;2.23;;;20.30;99.90;;;;;;4925817;29;20539;-70
2021/08/18 11:13:06;;;;;;;3.37;2.47;;;20.20;99.90;;;;;;4934308;29;20403;-70
2021/08/18 11:15:54;;;;;;;4.10;2.80;;;20.20;99.90;;;;;;4934695;29;20411;-70
2021/08/18 11:18:24;;;;;;;4.53;4.13;;;20.20;99.90;;;;;;4934322;29;20777;-69
2021/08/18 11:20:54;;;;;;;50.50;39.93;;;20.20;99.90;;;;;;4917563;29;20415;-71
2021/08/18 11:23:31;;;;;;;4.10;2.70;;;20.40;99.90;;;;;;4934631;29;20902;-70
2021/08/18 11:26:03;;;;;;;2.90;2.30;;;20.50;99.90;;;;;;4934540;29;20391;-69
2021/08/18 11:28:34;;;;;;;4.27;2.80;;;20.60;99.90;;;;;;4935513;29;20427;-70
2021/08/18 11:31:05;;;;;;;3.00;2.70;;;20.20;99.90;;;;;;4938203;29;20460;-70
2021/08/18 11:33:36;;;;;;;1.90;1.50;;;19.80;99.90;;;;;;4938202;29;20433;-70
2021/08/18 11:36:20;;;;;;;2.73;2.40;;;19.90;99.90;;;;;;4938243;29;20415;-70
2021/08/18 11:38:58;;;;;;;4.13;3.07;;;20.50;99.90;;;;;;4935700;29;20545;-71
2021/08/18 11:41:40;;;;;;;3.57;2.10;;;21.20;99.90;;;;;;4938345;29;20486;-71
2021/08/18 11:44:09;;;;;;;4.20;2.60;;;21.30;99.90;;;;;;4939848;29;20403;-70
2021/08/18 11:46:38;;;;;;;3.77;2.10;;;21.00;99.90;;;;;;4939817;29;20450;-71
2021/08/18 11:49:09;;;;;;;2.63;2.40;;;20.90;99.90;;;;;;4938426;29;20463;-72
2021/08/18 11:51:40;;;;;;;3.77;2.40;;;21.10;99.90;;;;;;4940047;29;20898;-70
2021/08/18 11:54:10;;;;;;;2.60;2.40;;;20.80;99.90;;;;;;4940262;29;20490;-71
2021/08/18 11:56:38;;;;;;;3.33;2.30;;;20.60;99.90;;;;;;4918763;29;20447;-70
2021/08/18 11:59:07;;;;;;;3.80;3.00;;;20.90;99.90;;;;;;4921242;29;20461;-70
2021/08/18 12:01:36;;;;;;;5.07;3.17;;;21.20;99.90;;;;;;4920550;29;20416;-70
2021/08/18 12:04:05;;;;;;;3.17;2.37;;;21.20;99.90;;;;;;4919562;29;20440;-71
2021/08/18 12:06:39;;;;;;;3.60;2.30;;;20.90;99.90;;;;;;4919014;29;20439;-69
2021/08/18 12:09:21;;;;;;;4.07;2.77;;;20.90;99.90;;;;;;4948029;23;20471;-70
2021/08/18 12:11:50;;;;;;;2.47;2.13;;;20.50;99.90;;;;;;4919644;29;20432;-70
2021/08/18 12:14:22;;;;;;;3.63;2.30;;;20.20;99.90;;;;;;4915823;29;20438;-70
2021/08/18 12:16:58;;;;;;;3.83;2.97;;;19.90;99.90;;;;;;4916223;29;20596;-70
2021/08/18 12:19:28;;;;;;;4.70;2.00;;;19.40;99.90;;;;;;4916335;29;20429;-70
2021/08/18 12:22:20;;;;;;;4.23;2.40;;;19.30;99.90;;;;;;4916674;29;20450;-70
2021/08/18 12:24:50;;;;;;;2.77;2.27;;;19.20;99.90;;;;;;4911586;29;20424;-70
2021/08/18 12:27:24;;;;;;;2.93;2.07;;;19.20;99.90;;;;;;4917110;29;20909;-70
2021/08/18 12:30:07;;;;;;;3.30;2.37;;;19.50;99.90;;;;;;4916461;29;20440;-71
2021/08/18 12:32:36;;;;;;;3.07;2.73;;;19.60;99.90;;;;;;4930888;29;20584;-70
2021/08/18 12:35:06;;;;;;;2.70;2.20;;;19.60;99.90;;;;;;4915924;29;20481;-70
2021/08/18 12:37:38;;;;;;;3.83;2.60;;;19.80;99.90;;;;;;4916072;29;20433;-70
2021/08/18 12:40:09;;;;;;;6.80;3.10;;;19.90;99.90;;;;;;4915950;29;20524;-70
2021/08/18 12:42:40;;;;;;;3.67;2.70;;;19.80;99.90;;;;;;4899068;29;20493;-70
2021/08/18 12:45:11;;;;;;;4.73;2.63;;;19.80;99.90;;;;;;4916918;29;20433;-71
2021/08/18 12:47:41;;;;;;;3.40;2.10;;;19.90;99.90;;;;;;4923429;29;20412;-72
2021/08/18 12:50:11;;;;;;;3.43;2.33;;;19.50;99.90;;;;;;4921207;29;20467;-71
2021/08/18 12:52:41;;;;;;;2.10;1.70;;;19.30;99.90;;;;;;4920416;29;20420;-71
2021/08/18 12:55:10;;;;;;;5.10;2.23;;;19.20;99.90;;;;;;4901917;29;20473;-71
2021/08/18 12:57:42;;;;;;;5.40;2.00;;;19.10;99.90;;;;;;4898776;29;20449;-70
2021/08/18 13:00:11;;;;;;;2.73;1.97;;;19.20;99.90;;;;;;4882602;29;21217;-70